| time (UTC) | temp F | wind direction | speed MPH | gust MPH | rain 1hr in | rain 24hr in | rain mn in | humidity % | barometer mb |
| 20260510064938 | 51 | 0 | 0.0 | 0.0 | 0.00 | 0.01 | 0.00 | 63 | 757.5 |
| 20260510063938 | 51 | 0 | 0.0 | 3.0 | 0.00 | 0.01 | 0.00 | 63 | 757.5 |
| 20260510062938 | 51 | 312 | 1.0 | 3.0 | 0.00 | 0.01 | 0.00 | 63 | 757.5 |
| 20260510061325 | 51 | 120 | 1.0 | 3.0 | 0.00 | 0.01 | 0.00 | 62 | 757.5 |
| 20260510060325 | 50 | 0 | 0.0 | 0.0 | 0.00 | 0.01 | 0.00 | 62 | 757.5 |
| 20260510055325 | 50 | 0 | 0.0 | 0.0 | 0.00 | 0.01 | 0.00 | 61 | 757.5 |
| 20260510053712 | 49 | 0 | 0.0 | 0.0 | 0.00 | 0.01 | 0.00 | 60 | 757.5 |
| 20260510052713 | 49 | 0 | 0.0 | 0.0 | 0.00 | 0.01 | 0.00 | 59 | 757.5 |
| 20260510051712 | 49 | 0 | 0.0 | 0.0 | 0.00 | 0.01 | 0.00 | 59 | 757.5 |
| 20260510050057 | 49 | 0 | 0.0 | 0.0 | 0.00 | 0.01 | 0.00 | 59 | 757.5 |
| 20260510045057 | 49 | 0 | 0.0 | 0.0 | 0.00 | 0.01 | 0.00 | 59 | 757.5 |
| 20260510044057 | 49 | 0 | 0.0 | 0.0 | 0.00 | 0.01 | 0.00 | 59 | 757.5 |
| 20260510042447 | 49 | 0 | 0.0 | 0.0 | 0.00 | 0.01 | 0.00 | 59 | 757.5 |
| 20260510041446 | 49 | 0 | 0.0 | 0.0 | 0.00 | 0.01 | 0.00 | 59 | 757.5 |
| 20260510040446 | 49 | 0 | 0.0 | 0.0 | 0.00 | 0.01 | 0.00 | 59 | 757.5 |
| 20260510034846 | 50 | 0 | 0.0 | 0.0 | 0.00 | 0.01 | 0.01 | 59 | 757.5 |
| 20260510033846 | 50 | 0 | 0.0 | 0.0 | 0.00 | 0.01 | 0.01 | 59 | 757.5 |
| 20260510032845 | 50 | 0 | 0.0 | 0.0 | 0.00 | 0.01 | 0.01 | 59 | 757.5 |
| 20260510031240 | 51 | 0 | 0.0 | 0.0 | 0.00 | 0.01 | 0.01 | 60 | 757.5 |
| 20260510030241 | 51 | 0 | 0.0 | 0.0 | 0.00 | 0.01 | 0.01 | 60 | 757.5 |
| 20260510025241 | 51 | 0 | 0.0 | 0.0 | 0.00 | 0.01 | 0.01 | 60 | 757.5 |
| 20260510023619 | 52 | 0 | 0.0 | 0.0 | 0.00 | 0.01 | 0.01 | 60 | 757.5 |
| 20260510022619 | 52 | 0 | 0.0 | 0.0 | 0.00 | 0.01 | 0.01 | 60 | 757.5 |
| 20260510021619 | 53 | 0 | 0.0 | 0.0 | 0.00 | 0.01 | 0.01 | 60 | 757.5 |
| 20260510015949 | 53 | 0 | 0.0 | 0.0 | 0.00 | 0.01 | 0.01 | 59 | 757.5 |
| 20260510014949 | 54 | 0 | 0.0 | 0.0 | 0.00 | 0.01 | 0.01 | 59 | 757.5 |
| 20260510013949 | 54 | 0 | 0.0 | 0.0 | 0.00 | 0.01 | 0.01 | 59 | 757.5 |
| 20260510012326 | 55 | 0 | 0.0 | 0.0 | 0.00 | 0.01 | 0.01 | 58 | 757.5 |
| 20260510011326 | 55 | 0 | 0.0 | 0.0 | 0.00 | 0.01 | 0.01 | 59 | 757.5 |
| 20260510010325 | 56 | 0 | 0.0 | 0.0 | 0.00 | 0.01 | 0.01 | 59 | 757.5 |
| 20260510004705 | 56 | 0 | 0.0 | 0.0 | 0.00 | 0.01 | 0.01 | 58 | 757.5 |
| 20260510003705 | 57 | 0 | 0.0 | 0.0 | 0.00 | 0.01 | 0.01 | 58 | 757.5 |
| 20260510002705 | 57 | 0 | 0.0 | 0.0 | 0.00 | 0.01 | 0.01 | 58 | 757.5 |
| 20260510001034 | 58 | 0 | 0.0 | 0.0 | 0.00 | 0.01 | 0.01 | 58 | 757.5 |
| 20260510000034 | 58 | 0 | 0.0 | 1.0 | 0.00 | 0.01 | 0.01 | 58 | 757.5 |
| 20260509235034 | 58 | 0 | 0.0 | 0.0 | 0.00 | 0.01 | 0.01 | 58 | 757.5 |
| 20260509233415 | 58 | 0 | 0.0 | 1.0 | 0.00 | 0.01 | 0.01 | 58 | 757.5 |
| 20260509232415 | 58 | 0 | 0.0 | 1.0 | 0.00 | 0.01 | 0.01 | 58 | 757.5 |
| 20260509231415 | 58 | 0 | 0.0 | 2.0 | 0.00 | 0.01 | 0.01 | 58 | 757.5 |
| 20260509225541 | 58 | 0 | 0.0 | 2.0 | 0.00 | 0.01 | 0.01 | 58 | 757.5 |
| 20260509224540 | 58 | 0 | 0.0 | 2.0 | 0.00 | 0.01 | 0.01 | 58 | 757.5 |
| 20260509223540 | 59 | 115 | 1.0 | 3.0 | 0.00 | 0.01 | 0.01 | 59 | 757.5 |
| 20260509221919 | 59 | 0 | 0.0 | 0.0 | 0.00 | 0.01 | 0.01 | 59 | 757.5 |
| 20260509220919 | 58 | 0 | 0.0 | 0.0 | 0.00 | 0.01 | 0.01 | 59 | 757.5 |
| 20260509215919 | 58 | 0 | 0.0 | 0.0 | 0.00 | 0.01 | 0.01 | 59 | 757.5 |
| 20260509214301 | 58 | 0 | 0.0 | 0.0 | 0.00 | 0.01 | 0.01 | 59 | 757.5 |
| 20260509213300 | 58 | 0 | 0.0 | 0.0 | 0.00 | 0.01 | 0.01 | 59 | 757.5 |
| 20260509212300 | 58 | 0 | 0.0 | 0.0 | 0.00 | 0.01 | 0.01 | 59 | 757.5 |
| 20260509210629 | 58 | 0 | 0.0 | 0.0 | 0.00 | 0.01 | 0.01 | 58 | 757.5 |
| 20260509205629 | 58 | 0 | 0.0 | 0.0 | 0.00 | 0.01 | 0.01 | 58 | 757.5 |
| 20260509204630 | 58 | 0 | 0.0 | 0.0 | 0.00 | 0.01 | 0.01 | 59 | 757.5 |
| 20260509203017 | 57 | 0 | 0.0 | 2.0 | 0.00 | 0.01 | 0.01 | 59 | 757.5 |
| 20260509202016 | 57 | 0 | 0.0 | 2.0 | 0.00 | 0.01 | 0.01 | 60 | 757.5 |
| 20260509201016 | 57 | 0 | 0.0 | 2.0 | 0.00 | 0.01 | 0.01 | 60 | 757.5 |
| 20260509195356 | 56 | 0 | 0.0 | 0.0 | 0.00 | 0.01 | 0.01 | 59 | 757.5 |
| 20260509194356 | 56 | 0 | 0.0 | 0.0 | 0.00 | 0.01 | 0.01 | 59 | 757.5 |
| 20260509193355 | 56 | 0 | 0.0 | 0.0 | 0.00 | 0.01 | 0.01 | 59 | 757.5 |
| 20260509191743 | 56 | 0 | 0.0 | 0.0 | 0.00 | 0.01 | 0.01 | 60 | 757.5 |
| 20260509190743 | 56 | 0 | 0.0 | 0.0 | 0.00 | 0.01 | 0.01 | 60 | 757.5 |
| 20260509185743 | 56 | 0 | 0.0 | 2.0 | 0.00 | 0.01 | 0.01 | 60 | 757.5 |
| 20260509184113 | 57 | 327 | 1.0 | 3.0 | 0.00 | 0.01 | 0.01 | 60 | 757.5 |
| 20260509183114 | 57 | 0 | 0.0 | 0.0 | 0.00 | 0.01 | 0.01 | 60 | 757.5 |
| 20260509182114 | 57 | 0 | 0.0 | 0.0 | 0.00 | 0.01 | 0.01 | 60 | 757.5 |
| 20260509180404 | 57 | 0 | 0.0 | 0.0 | 0.00 | 0.01 | 0.01 | 60 | 757.5 |
| 20260509175405 | 57 | 0 | 0.0 | 1.0 | 0.00 | 0.01 | 0.01 | 59 | 757.5 |
| 20260509174405 | 57 | 0 | 0.0 | 2.0 | 0.00 | 0.01 | 0.01 | 59 | 757.5 |
| 20260509172700 | 57 | 0 | 0.0 | 2.0 | 0.00 | 0.01 | 0.01 | 59 | 757.5 |
| 20260509171658 | 57 | 0 | 0.0 | 2.0 | 0.00 | 0.01 | 0.01 | 60 | 757.5 |
| 20260509170658 | 58 | 209 | 1.0 | 2.0 | 0.00 | 0.01 | 0.01 | 60 | 757.5 |
| 20260509164941 | 58 | 0 | 0.0 | 0.0 | 0.00 | 0.01 | 0.01 | 60 | 757.5 |
| 20260509163941 | 58 | 0 | 0.0 | 2.0 | 0.00 | 0.01 | 0.01 | 61 | 757.5 |
| 20260509162941 | 58 | 0 | 0.0 | 1.0 | 0.00 | 0.01 | 0.01 | 61 | 757.5 |
| 20260509161234 | 58 | 0 | 0.0 | 0.0 | 0.00 | 0.01 | 0.01 | 60 | 757.5 |
| 20260509160234 | 58 | 0 | 0.0 | 2.0 | 0.00 | 0.01 | 0.01 | 59 | 757.5 |
| 20260509155234 | 58 | 210 | 1.0 | 4.0 | 0.00 | 0.01 | 0.01 | 59 | 757.5 |
| 20260509153518 | 59 | 209 | 2.0 | 4.0 | 0.00 | 0.01 | 0.01 | 59 | 757.5 |
| 20260509152517 | 59 | 197 | 2.0 | 3.0 | 0.00 | 0.01 | 0.01 | 59 | 757.5 |
| 20260509151517 | 59 | 195 | 2.0 | 4.0 | 0.00 | 0.01 | 0.01 | 59 | 757.5 |
| 20260509145811 | 59 | 0 | 0.0 | 0.0 | 0.00 | 0.01 | 0.01 | 59 | 757.5 |
| 20260509144811 | 58 | 0 | 0.0 | 0.0 | 0.00 | 0.01 | 0.01 | 59 | 757.5 |
| 20260509143810 | 58 | 0 | 0.0 | 0.0 | 0.00 | 0.01 | 0.01 | 58 | 757.5 |
| 20260509142051 | 58 | 0 | 0.0 | 0.0 | 0.00 | 0.01 | 0.01 | 57 | 757.5 |
| 20260509141052 | 58 | 162 | 1.0 | 4.0 | 0.00 | 0.01 | 0.01 | 57 | 757.5 |
| 20260509140052 | 58 | 0 | 0.0 | 4.0 | 0.00 | 0.01 | 0.01 | 57 | 757.5 |
| 20260509134346 | 57 | 0 | 0.0 | 4.0 | 0.00 | 0.01 | 0.01 | 57 | 757.5 |
| 20260509133347 | 56 | 0 | 0.0 | 3.0 | 0.00 | 0.01 | 0.01 | 57 | 757.5 |
| 20260509132347 | 56 | 0 | 0.0 | 2.0 | 0.00 | 0.01 | 0.01 | 58 | 757.5 |
| 20260509130632 | 55 | 135 | 1.0 | 3.0 | 0.00 | 0.01 | 0.01 | 58 | 757.5 |
| 20260509125631 | 55 | 0 | 0.0 | 2.0 | 0.00 | 0.01 | 0.01 | 59 | 757.5 |
| 20260509124631 | 54 | 160 | 1.0 | 4.0 | 0.00 | 0.02 | 0.01 | 60 | 757.5 |
| 20260509122923 | 54 | 164 | 1.0 | 2.0 | 0.00 | 0.02 | 0.01 | 61 | 757.5 |
| 20260509121923 | 53 | 0 | 0.0 | 2.0 | 0.00 | 0.02 | 0.01 | 61 | 757.5 |
| 20260509120923 | 53 | 0 | 0.0 | 0.0 | 0.00 | 0.02 | 0.01 | 61 | 757.5 |
| 20260509115216 | 52 | 0 | 0.0 | 0.0 | 0.01 | 0.02 | 0.01 | 62 | 757.5 |
| 20260509114216 | 52 | 0 | 0.0 | 0.0 | 0.01 | 0.02 | 0.01 | 62 | 757.5 |
| 20260509113216 | 52 | 0 | 0.0 | 0.0 | 0.01 | 0.02 | 0.01 | 62 | 757.5 |
| 20260509111501 | 52 | 0 | 0.0 | 0.0 | 0.01 | 0.02 | 0.01 | 63 | 757.5 |
| 20260509110501 | 52 | 0 | 0.0 | 0.0 | 0.00 | 0.01 | 0.00 | 63 | 757.5 |
| 20260509105501 | 52 | 0 | 0.0 | 0.0 | 0.00 | 0.01 | 0.00 | 63 | 757.5 |
| 20260509103752 | 52 | 0 | 0.0 | 0.0 | 0.00 | 0.01 | 0.00 | 63 | 757.5 |
| 20260509102752 | 52 | 0 | 0.0 | 0.0 | 0.00 | 0.01 | 0.00 | 63 | 757.5 |
| 20260509101752 | 52 | 0 | 0.0 | 0.0 | 0.00 | 0.01 | 0.00 | 63 | 757.5 |
| 20260509100046 | 52 | 0 | 0.0 | 0.0 | 0.00 | 0.01 | 0.00 | 63 | 757.5 |
| 20260509095045 | 52 | 0 | 0.0 | 0.0 | 0.00 | 0.01 | 0.00 | 62 | 757.5 |
| 20260509094045 | 52 | 0 | 0.0 | 0.0 | 0.00 | 0.01 | 0.00 | 62 | 757.5 |
| 20260509092345 | 52 | 0 | 0.0 | 0.0 | 0.00 | 0.01 | 0.00 | 63 | 757.5 |
| 20260509091345 | 52 | 0 | 0.0 | 0.0 | 0.00 | 0.01 | 0.00 | 62 | 757.5 |
| 20260509090344 | 52 | 0 | 0.0 | 0.0 | 0.00 | 0.01 | 0.00 | 63 | 757.5 |
| 20260509084712 | 52 | 0 | 0.0 | 0.0 | 0.00 | 0.01 | 0.00 | 62 | 757.5 |
| 20260509083711 | 52 | 0 | 0.0 | 0.0 | 0.00 | 0.01 | 0.00 | 62 | 757.5 |
| 20260509082711 | 52 | 0 | 0.0 | 0.0 | 0.00 | 0.01 | 0.00 | 63 | 757.5 |
| 20260509081001 | 52 | 0 | 0.0 | 0.0 | 0.00 | 0.01 | 0.00 | 63 | 757.5 |
| 20260509080001 | 52 | 0 | 0.0 | 0.0 | 0.00 | 0.01 | 0.00 | 62 | 757.5 |
| 20260509075000 | 52 | 0 | 0.0 | 0.0 | 0.00 | 0.01 | 0.00 | 62 | 757.5 |
| 20260509073312 | 52 | 0 | 0.0 | 0.0 | 0.00 | 0.01 | 0.00 | 62 | 757.5 |
| 20260509072311 | 52 | 0 | 0.0 | 0.0 | 0.00 | 0.01 | 0.00 | 62 | 757.5 |
| 20260509071311 | 52 | 0 | 0.0 | 0.0 | 0.00 | 0.01 | 0.00 | 62 | 757.5 |